Time;durP1;ratioP1;P1;durP2;ratioP2;P2;SDS_P1;SDS_P2;PMS_P1;PMS_P2;Temp;Humidity;BMP_temperature;BMP_pressure;BME280_temperature;BME280_humidity;BME280_pressure;Samples;Min_cycle;Max_cycle;Signal;HPM_P1;HPM_P2
2021/12/23 00:01:37;;;;;;;;;61.00;49.00;;;;;;;;5095714;27;46883;-47
2021/12/23 00:04:03;;;;;;;;;57.00;45.75;;;;;;;;5096230;27;45397;-48
2021/12/23 00:06:28;;;;;;;;;37.75;27.25;;;;;;;;5096403;27;45312;-53
2021/12/23 00:08:54;;;;;;;;;56.50;48.25;;;;;;;;5096413;27;45285;-50
2021/12/23 00:11:19;;;;;;;;;47.25;44.00;;;;;;;;5095832;27;45268;-47
2021/12/23 00:13:51;;;;;;;;;66.75;46.50;;;;;;;;5095400;27;45362;-51
2021/12/23 00:16:18;;;;;;;;;61.50;46.75;;;;;;;;5096295;27;45409;-48
2021/12/23 00:18:50;;;;;;;;;60.00;50.50;;;;;;;;5096060;27;45374;-48
2021/12/23 00:24:00;;;;;;;;;51.75;46.00;;;;;;;;5095714;27;45270;-48
2021/12/23 00:26:26;;;;;;;;;57.75;45.75;;;;;;;;5094487;27;45365;-49
2021/12/23 00:28:52;;;;;;;;;51.50;46.00;;;;;;;;5096007;27;45463;-53
2021/12/23 00:31:17;;;;;;;;;50.25;46.25;;;;;;;;5095760;27;45357;-49
2021/12/23 00:33:43;;;;;;;;;60.50;46.25;;;;;;;;5095992;27;45318;-47
2021/12/23 00:36:10;;;;;;;;;55.25;47.00;;;;;;;;5095466;27;45275;-46
2021/12/23 00:38:41;;;;;;;;;56.00;47.00;;;;;;;;5096049;27;45486;-49
2021/12/23 00:41:08;;;;;;;;;52.25;46.75;;;;;;;;5095814;27;46107;-48
2021/12/23 00:43:33;;;;;;;;;65.75;51.00;;;;;;;;5098814;27;45541;-49
2021/12/23 00:45:59;;;;;;;;;58.00;49.00;;;;;;;;5098922;27;45467;-48
2021/12/23 00:48:25;;;;;;;;;66.50;52.25;;;;;;;;5099440;27;45360;-52
2021/12/23 00:50:50;;;;;;;;;54.00;46.75;;;;;;;;5099085;27;46270;-47
2021/12/23 00:53:20;;;;;;;;;48.00;41.00;;;;;;;;5099272;27;45460;-50
2021/12/23 00:55:49;;;;;;;;;58.00;50.00;;;;;;;;5099378;27;45329;-49
2021/12/23 00:58:14;;;;;;;;;64.50;51.75;;;;;;;;5098687;27;45357;-48
2021/12/23 01:00:39;;;;;;;;;57.25;49.00;;;;;;;;5097613;27;45489;-51
2021/12/23 01:03:05;;;;;;;;;60.25;49.00;;;;;;;;5094224;27;45469;-49
2021/12/23 01:05:31;;;;;;;;;63.25;51.50;;;;;;;;5098806;27;45389;-50
2021/12/23 01:07:56;;;;;;;;;68.00;51.50;;;;;;;;5098074;27;45496;-49
2021/12/23 01:10:23;;;;;;;;;56.50;49.25;;;;;;;;5097091;27;46278;-50
2021/12/23 01:12:53;;;;;;;;;57.00;47.50;;;;;;;;5098104;27;45303;-51
2021/12/23 01:17:59;;;;;;;;;65.50;52.25;;;;;;;;5098177;27;45319;-50
2021/12/23 01:20:31;;;;;;;;;66.75;51.00;;;;;;;;5098281;27;45430;-50
2021/12/23 01:22:58;;;;;;;;;62.50;50.25;;;;;;;;5098325;27;45351;-47
2021/12/23 01:25:24;;;;;;;;;63.00;51.75;;;;;;;;5098624;27;45286;-50
2021/12/23 01:27:49;;;;;;;;;58.75;48.50;;;;;;;;5095726;27;45583;-47
2021/12/23 01:30:15;;;;;;;;;64.50;52.25;;;;;;;;5095762;27;45992;-46
2021/12/23 01:32:40;;;;;;;;;64.00;54.00;;;;;;;;5080527;27;45535;-52
2021/12/23 01:35:06;;;;;;;;;70.25;51.00;;;;;;;;5076727;27;45490;-48
2021/12/23 01:37:31;;;;;;;;;59.00;50.25;;;;;;;;5096126;27;45407;-48
2021/12/23 01:39:56;;;;;;;;;64.50;49.00;;;;;;;;5096790;27;45600;-49
2021/12/23 01:42:22;;;;;;;;;63.00;49.25;;;;;;;;5096406;27;45369;-50
2021/12/23 01:44:47;;;;;;;;;66.50;50.25;;;;;;;;5096767;27;45658;-52
2021/12/23 01:47:12;;;;;;;;;66.25;54.25;;;;;;;;5097194;27;45514;-48
2021/12/23 01:49:37;;;;;;;;;63.00;50.75;;;;;;;;5098196;27;45513;-48
2021/12/23 01:52:03;;;;;;;;;62.75;50.25;;;;;;;;5096449;27;45283;-49
2021/12/23 01:54:28;;;;;;;;;60.00;50.00;;;;;;;;5098262;27;45359;-51
2021/12/23 01:56:53;;;;;;;;;59.50;50.75;;;;;;;;5097809;27;45431;-50
2021/12/23 01:59:18;;;;;;;;;55.75;47.75;;;;;;;;5096138;27;47592;-49
2021/12/23 02:01:44;;;;;;;;;58.00;46.50;;;;;;;;5097089;27;45281;-51
2021/12/23 02:04:09;;;;;;;;;62.25;51.00;;;;;;;;5097498;27;45215;-49
2021/12/23 02:06:34;;;;;;;;;55.00;46.75;;;;;;;;5098259;27;45273;-47
2021/12/23 02:08:59;;;;;;;;;63.75;52.25;;;;;;;;5097987;27;45260;-48
2021/12/23 02:11:25;;;;;;;;;64.75;50.75;;;;;;;;5097094;27;45692;-48
2021/12/23 02:13:50;;;;;;;;;55.50;46.00;;;;;;;;5097022;27;45357;-47
2021/12/23 02:16:15;;;;;;;;;63.00;50.50;;;;;;;;5097067;27;45478;-49
2021/12/23 02:18:41;;;;;;;;;62.25;50.25;;;;;;;;5097670;27;45575;-47
2021/12/23 02:21:06;;;;;;;;;58.50;44.50;;;;;;;;5097333;27;45305;-49
2021/12/23 02:23:32;;;;;;;;;56.00;46.25;;;;;;;;5098041;27;45436;-48
2021/12/23 02:25:57;;;;;;;;;61.00;49.25;;;;;;;;5095289;27;45370;-47
2021/12/23 02:28:22;;;;;;;;;62.00;48.75;;;;;;;;5097721;27;45988;-49
2021/12/23 02:30:51;;;;;;;;;61.25;49.50;;;;;;;;5096639;27;45349;-52
2021/12/23 02:33:17;;;;;;;;;62.25;47.50;;;;;;;;5097832;27;45277;-52
2021/12/23 02:35:42;;;;;;;;;65.00;52.75;;;;;;;;5096906;27;45586;-47
2021/12/23 02:38:08;;;;;;;;;60.00;51.25;;;;;;;;5097383;27;45871;-48
2021/12/23 02:40:35;;;;;;;;;61.75;50.25;;;;;;;;5096859;27;45491;-47
2021/12/23 02:43:11;;;;;;;;;64.75;49.50;;;;;;;;5096788;27;45582;-48
2021/12/23 02:45:37;;;;;;;;;54.00;45.00;;;;;;;;5097180;27;45422;-50
2021/12/23 02:48:03;;;;;;;;;58.75;49.75;;;;;;;;5096820;27;46350;-50
2021/12/23 02:50:28;;;;;;;;;56.75;46.50;;;;;;;;5097378;27;45381;-46
2021/12/23 02:52:58;;;;;;;;;66.00;50.50;;;;;;;;5096762;27;45449;-48
2021/12/23 02:55:24;;;;;;;;;72.75;51.25;;;;;;;;5097162;27;45352;-48
2021/12/23 02:57:49;;;;;;;;;54.00;44.75;;;;;;;;5096722;27;46274;-47
2021/12/23 03:00:15;;;;;;;;;59.75;50.25;;;;;;;;5097012;27;45360;-49
2021/12/23 03:02:40;;;;;;;;;53.75;45.25;;;;;;;;5096618;27;45399;-47
2021/12/23 03:05:07;;;;;;;;;69.50;51.00;;;;;;;;5095435;27;45372;-49
2021/12/23 03:07:32;;;;;;;;;63.75;49.25;;;;;;;;5096002;27;45401;-47
2021/12/23 03:09:57;;;;;;;;;64.00;51.25;;;;;;;;5096973;27;45319;-52
2021/12/23 03:12:22;;;;;;;;;63.00;52.00;;;;;;;;5097142;27;45219;-49
2021/12/23 03:14:47;;;;;;;;;60.00;49.50;;;;;;;;5096755;27;45329;-51
2021/12/23 03:17:13;;;;;;;;;57.50;48.50;;;;;;;;5096543;27;45411;-46
2021/12/23 03:19:38;;;;;;;;;56.00;50.25;;;;;;;;5096772;27;45258;-48
2021/12/23 03:22:03;;;;;;;;;55.25;47.00;;;;;;;;5095911;27;45296;-52
2021/12/23 03:24:29;;;;;;;;;62.50;50.25;;;;;;;;5096841;27;45501;-47
2021/12/23 03:26:54;;;;;;;;;66.75;50.75;;;;;;;;5096877;27;45439;-48
2021/12/23 03:29:19;;;;;;;;;59.25;48.75;;;;;;;;5096895;27;45328;-49
2021/12/23 03:31:44;;;;;;;;;65.00;54.50;;;;;;;;5095883;27;45287;-48
2021/12/23 03:34:10;;;;;;;;;64.25;50.50;;;;;;;;5096982;27;45297;-49
2021/12/23 03:36:35;;;;;;;;;60.00;50.00;;;;;;;;5096809;27;45540;-48
2021/12/23 03:39:00;;;;;;;;;63.75;51.00;;;;;;;;5096685;27;45502;-47
2021/12/23 03:41:26;;;;;;;;;56.00;49.00;;;;;;;;5096181;27;45391;-46
2021/12/23 03:43:51;;;;;;;;;51.75;46.25;;;;;;;;5096537;27;45291;-47
2021/12/23 03:46:16;;;;;;;;;60.00;48.00;;;;;;;;5096437;27;45362;-47
2021/12/23 03:48:41;;;;;;;;;59.50;46.50;;;;;;;;5096855;27;45385;-49
2021/12/23 03:51:07;;;;;;;;;58.25;50.00;;;;;;;;5096758;27;45285;-51
2021/12/23 03:53:32;;;;;;;;;65.50;50.25;;;;;;;;5095773;27;45258;-50
2021/12/23 03:55:57;;;;;;;;;61.00;50.25;;;;;;;;5096552;27;45324;-50
2021/12/23 03:58:22;;;;;;;;;61.75;52.00;;;;;;;;5096616;27;45249;-47
2021/12/23 04:00:48;;;;;;;;;50.75;44.00;;;;;;;;5095939;27;45427;-48
2021/12/23 04:03:14;;;;;;;;;60.25;46.75;;;;;;;;5094981;27;45490;-47
2021/12/23 04:05:39;;;;;;;;;66.00;52.75;;;;;;;;5094520;27;46583;-48
2021/12/23 04:08:05;;;;;;;;;60.50;44.25;;;;;;;;5096341;27;45464;-49
2021/12/23 04:10:30;;;;;;;;;65.75;52.75;;;;;;;;5096035;27;45373;-47
2021/12/23 04:12:55;;;;;;;;;65.75;53.00;;;;;;;;5096586;27;45495;-48
2021/12/23 04:15:20;;;;;;;;;58.75;50.00;;;;;;;;5095416;27;46123;-47
2021/12/23 04:17:46;;;;;;;;;66.25;50.50;;;;;;;;5100031;27;45269;-49
2021/12/23 04:20:22;;;;;;;;;52.50;47.25;;;;;;;;5099771;27;45460;-49
2021/12/23 04:22:52;;;;;;;;;54.50;45.75;;;;;;;;5100024;27;45208;-47
2021/12/23 04:25:18;;;;;;;;;67.50;50.75;;;;;;;;5099709;27;46351;-49
2021/12/23 04:27:45;;;;;;;;;66.75;53.50;;;;;;;;5098079;27;45417;-48
2021/12/23 04:30:11;;;;;;;;;69.50;55.25;;;;;;;;5097994;27;45507;-47
2021/12/23 04:32:36;;;;;;;;;62.25;50.50;;;;;;;;5099944;27;45539;-48
2021/12/23 04:35:02;;;;;;;;;62.00;50.25;;;;;;;;5099597;27;45639;-52
2021/12/23 04:37:27;;;;;;;;;62.00;51.50;;;;;;;;5099162;27;45308;-48
2021/12/23 04:39:52;;;;;;;;;59.50;51.00;;;;;;;;5099035;27;45227;-48
2021/12/23 04:42:17;;;;;;;;;63.50;49.75;;;;;;;;5099697;27;45607;-48
2021/12/23 04:44:42;;;;;;;;;61.00;48.75;;;;;;;;5099338;27;45957;-47
2021/12/23 04:47:08;;;;;;;;;60.00;50.00;;;;;;;;5099067;27;45408;-48
2021/12/23 04:49:33;;;;;;;;;68.50;51.25;;;;;;;;5098688;27;45271;-47
2021/12/23 04:51:58;;;;;;;;;62.25;51.00;;;;;;;;5099527;27;45177;-49
2021/12/23 04:54:23;;;;;;;;;63.75;52.75;;;;;;;;5098980;27;46428;-49
2021/12/23 04:56:48;;;;;;;;;58.00;51.25;;;;;;;;5098976;27;45266;-52
2021/12/23 04:59:14;;;;;;;;;63.00;49.50;;;;;;;;5098946;27;45137;-48
2021/12/23 05:01:39;;;;;;;;;60.50;50.25;;;;;;;;5098409;27;46856;-48
2021/12/23 05:04:04;;;;;;;;;61.25;49.75;;;;;;;;5099029;27;46484;-48
2021/12/23 05:06:29;;;;;;;;;66.00;52.75;;;;;;;;5099200;27;45336;-48
2021/12/23 05:08:55;;;;;;;;;62.50;49.75;;;;;;;;5099323;27;45291;-49
2021/12/23 05:11:20;;;;;;;;;54.00;48.50;;;;;;;;5097902;27;45513;-51
2021/12/23 05:13:47;;;;;;;;;51.00;47.00;;;;;;;;5099075;27;46283;-50
2021/12/23 05:16:12;;;;;;;;;55.00;49.50;;;;;;;;5098662;27;45597;-51
2021/12/23 05:18:37;;;;;;;;;61.25;51.25;;;;;;;;5099187;27;45306;-49
2021/12/23 05:21:03;;;;;;;;;56.25;46.25;;;;;;;;5098002;27;45341;-50
2021/12/23 05:23:28;;;;;;;;;63.75;53.50;;;;;;;;5098891;27;45318;-50
2021/12/23 05:25:54;;;;;;;;;68.25;52.00;;;;;;;;5098742;27;45507;-48
2021/12/23 05:28:19;;;;;;;;;66.00;53.75;;;;;;;;5098129;27;45373;-47
2021/12/23 05:30:44;;;;;;;;;66.25;51.00;;;;;;;;5098729;27;45611;-50
2021/12/23 05:33:09;;;;;;;;;60.75;50.00;;;;;;;;5098270;27;45578;-52
2021/12/23 05:35:34;;;;;;;;;65.75;51.00;;;;;;;;5098687;27;45218;-50
2021/12/23 05:38:00;;;;;;;;;63.50;50.75;;;;;;;;5098797;27;45214;-52
2021/12/23 05:40:26;;;;;;;;;67.75;50.00;;;;;;;;5098101;27;45355;-51
2021/12/23 05:42:51;;;;;;;;;59.50;49.25;;;;;;;;5098109;27;47168;-46
2021/12/23 05:45:17;;;;;;;;;64.75;52.25;;;;;;;;5096752;27;45419;-49
2021/12/23 05:47:43;;;;;;;;;62.00;50.75;;;;;;;;5098506;27;45316;-49
2021/12/23 05:50:09;;;;;;;;;61.50;51.00;;;;;;;;5098507;27;45623;-48
2021/12/23 05:52:35;;;;;;;;;59.25;49.50;;;;;;;;5097852;27;46266;-49
2021/12/23 05:55:02;;;;;;;;;62.00;48.75;;;;;;;;5097926;27;45407;-51
2021/12/23 05:57:27;;;;;;;;;67.25;52.25;;;;;;;;5098465;27;45459;-49
2021/12/23 05:59:52;;;;;;;;;60.00;48.50;;;;;;;;5098471;27;45451;-51
2021/12/23 06:02:18;;;;;;;;;68.75;50.50;;;;;;;;5097259;27;45594;-46
2021/12/23 06:04:43;;;;;;;;;61.00;50.50;;;;;;;;5097208;27;45523;-47
2021/12/23 06:07:09;;;;;;;;;66.75;54.00;;;;;;;;5098205;27;45352;-49
2021/12/23 06:09:34;;;;;;;;;65.75;55.00;;;;;;;;5098415;27;45342;-49
2021/12/23 06:12:00;;;;;;;;;56.75;48.00;;;;;;;;5096496;27;46581;-48
2021/12/23 06:14:25;;;;;;;;;64.00;51.50;;;;;;;;5097463;27;45317;-51
2021/12/23 06:16:50;;;;;;;;;67.50;53.50;;;;;;;;5097464;27;45234;-49
2021/12/23 06:19:15;;;;;;;;;52.75;45.25;;;;;;;;5098132;27;45269;-50
2021/12/23 06:21:41;;;;;;;;;54.50;49.25;;;;;;;;5097534;27;46426;-50
2021/12/23 06:24:06;;;;;;;;;63.75;49.75;;;;;;;;5097844;27;45544;-50
2021/12/23 06:26:31;;;;;;;;;64.25;52.75;;;;;;;;5097830;27;45231;-51
2021/12/23 06:28:57;;;;;;;;;67.75;56.50;;;;;;;;5097787;27;45368;-49
2021/12/23 06:31:23;;;;;;;;;69.75;54.75;;;;;;;;5097542;27;46353;-52
2021/12/23 06:33:48;;;;;;;;;66.75;55.25;;;;;;;;5097783;27;45306;-47
2021/12/23 06:36:13;;;;;;;;;62.75;54.25;;;;;;;;5097896;27;45234;-49
2021/12/23 06:38:39;;;;;;;;;65.75;51.50;;;;;;;;5097129;27;45186;-52
2021/12/23 06:41:04;;;;;;;;;62.25;50.75;;;;;;;;5095671;27;45323;-46
2021/12/23 06:43:29;;;;;;;;;65.00;52.50;;;;;;;;5097305;27;45294;-48
2021/12/23 06:45:55;;;;;;;;;59.50;49.75;;;;;;;;5097035;27;45632;-51
2021/12/23 06:48:20;;;;;;;;;66.00;53.25;;;;;;;;5097535;27;45596;-49
2021/12/23 06:50:45;;;;;;;;;64.00;54.75;;;;;;;;5096297;27;45422;-51
2021/12/23 06:53:13;;;;;;;;;66.25;54.00;;;;;;;;5097054;27;45481;-49
2021/12/23 06:55:40;;;;;;;;;60.50;50.00;;;;;;;;5097514;27;45254;-50
2021/12/23 06:58:05;;;;;;;;;63.50;51.25;;;;;;;;5096605;27;45684;-48
2021/12/23 07:00:30;;;;;;;;;62.25;50.75;;;;;;;;5095871;27;46290;-51
2021/12/23 07:02:56;;;;;;;;;63.50;51.75;;;;;;;;5096352;27;45444;-49
2021/12/23 07:05:22;;;;;;;;;66.00;51.75;;;;;;;;5092387;27;45426;-51
2021/12/23 07:08:04;;;;;;;;;63.25;51.50;;;;;;;;5097087;27;45559;-48
2021/12/23 07:10:31;;;;;;;;;67.25;55.50;;;;;;;;5096676;27;46386;-48
2021/12/23 07:12:57;;;;;;;;;63.00;52.25;;;;;;;;5095478;27;45585;-50
2021/12/23 07:15:25;;;;;;;;;65.00;49.00;;;;;;;;5096622;27;45385;-48
2021/12/23 07:17:52;;;;;;;;;66.75;53.25;;;;;;;;5095736;27;45569;-50
2021/12/23 07:20:17;;;;;;;;;57.00;48.25;;;;;;;;5095587;27;45496;-46
2021/12/23 07:22:43;;;;;;;;;62.50;50.25;;;;;;;;5096074;27;45251;-49
2021/12/23 07:25:09;;;;;;;;;60.50;50.25;;;;;;;;5096907;27;45240;-50
2021/12/23 07:27:34;;;;;;;;;64.75;51.00;;;;;;;;5096960;27;45531;-47
2021/12/23 07:30:00;;;;;;;;;62.25;50.25;;;;;;;;5095165;27;45575;-48
2021/12/23 07:32:26;;;;;;;;;58.50;49.75;;;;;;;;5096579;27;45252;-49
2021/12/23 07:34:51;;;;;;;;;63.00;51.00;;;;;;;;5096628;27;45268;-50
2021/12/23 07:37:16;;;;;;;;;61.75;49.25;;;;;;;;5096894;27;45278;-48
2021/12/23 07:39:41;;;;;;;;;73.75;55.00;;;;;;;;5095777;27;45314;-50
2021/12/23 07:42:07;;;;;;;;;64.00;52.00;;;;;;;;5096296;27;45228;-51
2021/12/23 07:44:33;;;;;;;;;63.50;51.50;;;;;;;;5095570;27;45509;-50
2021/12/23 07:46:58;;;;;;;;;40.00;32.00;;;;;;;;5096520;27;45258;-47
2021/12/23 07:49:24;;;;;;;;;72.50;55.00;;;;;;;;5096047;27;45343;-51
2021/12/23 07:51:49;;;;;;;;;69.50;54.50;;;;;;;;5097828;27;45677;-47
2021/12/23 07:54:14;;;;;;;;;60.50;52.50;;;;;;;;5099655;27;45283;-52
2021/12/23 07:56:39;;;;;;;;;62.75;52.50;;;;;;;;5098490;27;45395;-48
2021/12/23 07:59:05;;;;;;;;;65.00;54.25;;;;;;;;5100264;27;45512;-49
2021/12/23 08:01:30;;;;;;;;;65.00;53.25;;;;;;;;5099020;27;45395;-50
2021/12/23 08:03:55;;;;;;;;;67.25;50.00;;;;;;;;5099758;27;45555;-50
2021/12/23 08:06:20;;;;;;;;;64.25;50.25;;;;;;;;5099346;27;45493;-48
2021/12/23 08:08:46;;;;;;;;;56.50;46.25;;;;;;;;5099323;27;46047;-48
2021/12/23 08:11:11;;;;;;;;;61.50;52.50;;;;;;;;5099354;27;45404;-49
2021/12/23 08:13:36;;;;;;;;;55.00;47.00;;;;;;;;5099837;27;45451;-50
2021/12/23 08:16:02;;;;;;;;;66.00;53.00;;;;;;;;5098823;27;45586;-47
2021/12/23 08:18:28;;;;;;;;;66.00;52.50;;;;;;;;5098049;27;45538;-46
2021/12/23 08:20:53;;;;;;;;;71.00;57.25;;;;;;;;5099699;27;45441;-48
2021/12/23 08:23:18;;;;;;;;;62.25;50.25;;;;;;;;5099624;27;45534;-46
2021/12/23 08:25:44;;;;;;;;;60.50;52.25;;;;;;;;5099206;27;45465;-47
2021/12/23 08:28:10;;;;;;;;;62.25;50.00;;;;;;;;5098836;27;45638;-48
2021/12/23 08:30:35;;;;;;;;;68.75;51.75;;;;;;;;5097746;27;45437;-49
2021/12/23 08:33:00;;;;;;;;;61.25;49.25;;;;;;;;5099362;27;45369;-49
2021/12/23 08:35:26;;;;;;;;;60.25;49.75;;;;;;;;5099216;27;45523;-49
2021/12/23 08:37:51;;;;;;;;;64.50;51.75;;;;;;;;5098869;27;45258;-47
2021/12/23 08:40:18;;;;;;;;;55.25;48.00;;;;;;;;5098918;27;45336;-51
2021/12/23 08:42:43;;;;;;;;;63.00;49.75;;;;;;;;5098940;27;45440;-48
2021/12/23 08:45:09;;;;;;;;;69.75;53.00;;;;;;;;5099281;27;45399;-50
2021/12/23 08:47:34;;;;;;;;;65.00;52.00;;;;;;;;5099486;27;45775;-48
2021/12/23 08:50:00;;;;;;;;;61.50;50.25;;;;;;;;5098988;27;45271;-51
2021/12/23 08:52:25;;;;;;;;;56.00;49.00;;;;;;;;5099364;27;45440;-47
2021/12/23 08:54:50;;;;;;;;;59.25;50.25;;;;;;;;5097729;27;45318;-47
2021/12/23 08:57:15;;;;;;;;;61.00;50.00;;;;;;;;5099102;27;46327;-47
2021/12/23 08:59:40;;;;;;;;;60.75;47.25;;;;;;;;5098452;27;45438;-48
2021/12/23 09:02:06;;;;;;;;;50.75;45.75;;;;;;;;5096748;27;45341;-47
2021/12/23 09:04:31;;;;;;;;;59.00;48.75;;;;;;;;5098741;27;45355;-51
2021/12/23 09:06:57;;;;;;;;;64.75;53.50;;;;;;;;5099174;27;45434;-48
2021/12/23 09:09:24;;;;;;;;;57.75;46.00;;;;;;;;5098083;27;45362;-47
2021/12/23 09:11:49;;;;;;;;;60.75;47.75;;;;;;;;5097702;27;45464;-50
2021/12/23 09:14:15;;;;;;;;;64.50;51.25;;;;;;;;5099002;27;45226;-49
2021/12/23 09:16:40;;;;;;;;;60.25;49.50;;;;;;;;5098557;27;46128;-46
2021/12/23 09:19:05;;;;;;;;;59.25;47.25;;;;;;;;5098808;27;45200;-47
2021/12/23 09:21:31;;;;;;;;;60.50;46.00;;;;;;;;5098519;27;45325;-46
2021/12/23 09:23:56;;;;;;;;;59.00;48.75;;;;;;;;5097515;27;45604;-47
2021/12/23 09:26:22;;;;;;;;;64.75;49.50;;;;;;;;5098308;27;45314;-51
2021/12/23 09:29:10;;;;;;;;;67.00;52.75;;;;;;;;5098201;27;45437;-51
2021/12/23 09:34:19;;;;;;;;;64.75;52.25;;;;;;;;5097253;27;45417;-47
2021/12/23 09:36:45;;;;;;;;;69.00;53.00;;;;;;;;5098372;27;46435;-45
2021/12/23 09:39:11;;;;;;;;;67.75;54.50;;;;;;;;5097815;27;45459;-47
2021/12/23 09:41:38;;;;;;;;;54.75;47.75;;;;;;;;5094314;27;45523;-51
2021/12/23 09:44:05;;;;;;;;;55.50;48.50;;;;;;;;5098128;27;45316;-50
2021/12/23 09:46:30;;;;;;;;;65.00;51.25;;;;;;;;5097312;27;45376;-48
2021/12/23 09:48:55;;;;;;;;;62.25;51.25;;;;;;;;5098229;27;45294;-48
2021/12/23 09:51:21;;;;;;;;;63.00;48.00;;;;;;;;5098442;27;45318;-48
2021/12/23 09:53:55;;;;;;;;;61.25;51.50;;;;;;;;5097756;27;45218;-47
2021/12/23 09:56:20;;;;;;;;;58.50;51.00;;;;;;;;5097559;27;46341;-46
2021/12/23 09:58:46;;;;;;;;;66.25;53.75;;;;;;;;5097229;27;46239;-46
2021/12/23 10:01:11;;;;;;;;;61.25;47.25;;;;;;;;5097267;27;45302;-49
2021/12/23 10:03:37;;;;;;;;;56.50;48.50;;;;;;;;5097666;27;45456;-48
2021/12/23 10:06:03;;;;;;;;;62.00;49.25;;;;;;;;5097261;27;46058;-49
2021/12/23 10:08:29;;;;;;;;;61.50;47.25;;;;;;;;5095627;27;45329;-48
2021/12/23 10:11:11;;;;;;;;;57.25;45.50;;;;;;;;5097537;27;45355;-49
2021/12/23 10:38:19;;;;;;;;;58.50;47.25;;;;;;;;5096619;27;45563;-50
2021/12/23 10:40:46;;;;;;;;;58.25;49.00;;;;;;;;5096214;27;45301;-48
2021/12/23 10:43:19;;;;;;;;;57.50;46.00;;;;;;;;5097302;27;45365;-50
2021/12/23 10:45:55;;;;;;;;;48.00;44.25;;;;;;;;5096956;27;45421;-48
2021/12/23 10:48:20;;;;;;;;;50.00;44.25;;;;;;;;5097197;27;46199;-49
2021/12/23 10:50:50;;;;;;;;;46.25;42.75;;;;;;;;5096506;27;45213;-48
2021/12/23 10:53:35;;;;;;;;;57.25;45.75;;;;;;;;5096891;27;45414;-47
2021/12/23 10:59:00;;;;;;;;;42.00;39.75;;;;;;;;5096903;27;45901;-49
2021/12/23 11:01:25;;;;;;;;;43.50;40.25;;;;;;;;5095786;27;45525;-47
2021/12/23 11:03:51;;;;;;;;;51.00;44.75;;;;;;;;5095863;27;45519;-46
2021/12/23 11:06:23;;;;;;;;;43.00;41.25;;;;;;;;5097346;27;45432;-49
2021/12/23 11:11:37;;;;;;;;;41.25;38.50;;;;;;;;5095465;27;45507;-46
2021/12/23 11:43:49;;;;;;;;;46.00;42.00;;;;;;;;5096105;27;45376;-48
2021/12/23 11:46:15;;;;;;;;;54.25;44.25;;;;;;;;5095085;27;45371;-47
2021/12/23 11:48:44;;;;;;;;;41.00;37.00;;;;;;;;5095879;27;45515;-47
2021/12/23 11:51:15;;;;;;;;;43.75;38.25;;;;;;;;5095433;27;46138;-46
2021/12/23 11:53:41;;;;;;;;;37.25;36.25;;;;;;;;5095458;27;45476;-48
2021/12/23 11:56:09;;;;;;;;;37.75;37.50;;;;;;;;5096172;27;45333;-48
2021/12/23 11:58:34;;;;;;;;;41.50;37.25;;;;;;;;5095698;27;45468;-49
2021/12/23 12:01:08;;;;;;;;;41.75;37.25;;;;;;;;5094942;27;45436;-50
2021/12/23 12:03:54;;;;;;;;;38.00;32.75;;;;;;;;5094678;27;45338;-46
2021/12/23 12:06:21;;;;;;;;;45.50;40.25;;;;;;;;5094714;27;45292;-47
2021/12/23 12:08:47;;;;;;;;;34.50;33.75;;;;;;;;5095892;27;45298;-47
2021/12/23 12:11:23;;;;;;;;;31.75;30.75;;;;;;;;5095857;27;45889;-49
2021/12/23 12:13:49;;;;;;;;;36.50;34.25;;;;;;;;5095677;27;45342;-48
2021/12/23 12:16:35;;;;;;;;;40.50;33.25;;;;;;;;5096140;27;45391;-47
2021/12/23 12:19:03;;;;;;;;;44.25;36.75;;;;;;;;5095539;27;45543;-48
2021/12/23 12:21:31;;;;;;;;;37.50;35.25;;;;;;;;5095426;27;45274;-48
2021/12/23 12:24:25;;;;;;;;;30.25;27.00;;;;;;;;5095794;27;45315;-49
2021/12/23 12:26:52;;;;;;;;;31.75;29.75;;;;;;;;5078082;27;45407;-50
2021/12/23 12:29:19;;;;;;;;;39.00;35.50;;;;;;;;5095856;27;45299;-51
2021/12/23 12:31:45;;;;;;;;;36.75;36.75;;;;;;;;5095343;27;45333;-48
2021/12/23 12:34:11;;;;;;;;;39.50;34.25;;;;;;;;5095723;27;45642;-46
2021/12/23 12:36:41;;;;;;;;;36.00;31.25;;;;;;;;5096312;27;45355;-48
2021/12/23 12:39:09;;;;;;;;;30.25;29.50;;;;;;;;5099350;27;45239;-49
2021/12/23 12:41:35;;;;;;;;;28.00;26.75;;;;;;;;5098672;27;45238;-50
2021/12/23 12:44:04;;;;;;;;;26.00;24.50;;;;;;;;5099458;27;45343;-49
2021/12/23 12:46:42;;;;;;;;;29.25;27.00;;;;;;;;5099280;27;45452;-50
2021/12/23 12:49:10;;;;;;;;;34.00;29.50;;;;;;;;5097986;27;45465;-50
2021/12/23 12:51:38;;;;;;;;;30.25;29.50;;;;;;;;5096905;27;47331;-46
2021/12/23 12:54:06;;;;;;;;;34.25;33.00;;;;;;;;5097425;27;45397;-48
2021/12/23 12:56:33;;;;;;;;;33.75;28.00;;;;;;;;5099358;27;45344;-49
2021/12/23 12:58:58;;;;;;;;;35.25;32.25;;;;;;;;5098720;27;45206;-46
2021/12/23 13:01:38;;;;;;;;;39.50;36.50;;;;;;;;5097608;27;45401;-51
2021/12/23 13:04:05;;;;;;;;;36.50;33.75;;;;;;;;5097947;27;45481;-48
2021/12/23 13:06:37;;;;;;;;;37.00;32.00;;;;;;;;5099020;27;45465;-50
2021/12/23 13:09:04;;;;;;;;;26.25;25.50;;;;;;;;5098065;27;45476;-48
2021/12/23 13:11:30;;;;;;;;;60.25;45.75;;;;;;;;5098256;27;46002;-51
2021/12/23 13:14:01;;;;;;;;;36.25;33.50;;;;;;;;5098175;27;45381;-46
2021/12/23 13:16:27;;;;;;;;;28.75;27.00;;;;;;;;5098989;27;45520;-50
2021/12/23 13:19:12;;;;;;;;;33.00;30.50;;;;;;;;5098835;27;45488;-50
2021/12/23 13:21:42;;;;;;;;;33.75;30.25;;;;;;;;5098693;27;46054;-53
2021/12/23 13:24:09;;;;;;;;;35.75;32.50;;;;;;;;5098696;27;45389;-53
2021/12/23 13:26:35;;;;;;;;;30.00;29.25;;;;;;;;5098625;27;45431;-47
2021/12/23 13:29:01;;;;;;;;;29.75;28.25;;;;;;;;5098881;27;45206;-47
2021/12/23 13:31:30;;;;;;;;;23.50;21.75;;;;;;;;5098145;27;45449;-50
2021/12/23 13:33:56;;;;;;;;;29.25;26.75;;;;;;;;5098717;27;45206;-49
2021/12/23 13:36:24;;;;;;;;;31.50;28.75;;;;;;;;5097968;27;45246;-49
2021/12/23 13:38:55;;;;;;;;;34.25;32.25;;;;;;;;5098422;27;45538;-49
2021/12/23 13:41:28;;;;;;;;;32.75;29.00;;;;;;;;5098231;27;45283;-49
2021/12/23 13:43:56;;;;;;;;;32.25;30.25;;;;;;;;5098349;27;45433;-49
2021/12/23 13:46:23;;;;;;;;;31.25;30.00;;;;;;;;5098452;27;45174;-49
2021/12/23 13:48:48;;;;;;;;;33.75;33.50;;;;;;;;5097344;27;45229;-51
2021/12/23 13:51:14;;;;;;;;;39.00;33.50;;;;;;;;5098079;27;45496;-49
2021/12/23 13:53:40;;;;;;;;;29.50;28.25;;;;;;;;5098162;27;45525;-50
2021/12/23 13:56:12;;;;;;;;;30.50;29.25;;;;;;;;5098236;27;45349;-50
2021/12/23 13:58:37;;;;;;;;;38.00;33.50;;;;;;;;5097792;27;45234;-50
2021/12/23 14:01:02;;;;;;;;;33.50;32.25;;;;;;;;5097613;27;45505;-49
2021/12/23 14:03:28;;;;;;;;;32.75;30.00;;;;;;;;5098014;27;45250;-48
2021/12/23 14:05:53;;;;;;;;;35.50;31.25;;;;;;;;5098401;27;45375;-51
2021/12/23 14:08:18;;;;;;;;;39.00;36.00;;;;;;;;5096936;27;45423;-52
2021/12/23 14:10:44;;;;;;;;;45.00;37.75;;;;;;;;5095617;27;45627;-49
2021/12/23 14:13:11;;;;;;;;;33.75;32.50;;;;;;;;5096787;27;45501;-52
2021/12/23 14:15:40;;;;;;;;;30.00;28.25;;;;;;;;5097254;27;45340;-53
2021/12/23 14:23:44;;;;;;;;;31.00;29.00;;;;;;;;5097550;27;45454;-50
2021/12/23 14:26:09;;;;;;;;;31.25;30.50;;;;;;;;5097959;27;45306;-51
2021/12/23 14:28:34;;;;;;;;;34.75;32.50;;;;;;;;5097200;27;45271;-50
2021/12/23 14:31:01;;;;;;;;;33.00;27.00;;;;;;;;5096138;27;47408;-51
2021/12/23 14:33:39;;;;;;;;;29.25;29.25;;;;;;;;5096980;27;45504;-49
2021/12/23 14:36:24;;;;;;;;;33.50;31.00;;;;;;;;5077069;27;45364;-52
2021/12/23 14:38:54;;;;;;;;;33.00;29.75;;;;;;;;5093801;27;45650;-48
2021/12/23 14:41:19;;;;;;;;;30.75;28.00;;;;;;;;5097351;27;46255;-45
2021/12/23 14:43:53;;;;;;;;;31.00;28.75;;;;;;;;5096394;27;45433;-51
2021/12/23 14:46:18;;;;;;;;;38.75;31.75;;;;;;;;5096616;27;45297;-53
2021/12/23 14:48:54;;;;;;;;;32.00;27.25;;;;;;;;5096580;27;45296;-47
2021/12/23 14:51:21;;;;;;;;;29.75;28.75;;;;;;;;5096397;27;45606;-52
2021/12/23 14:53:46;;;;;;;;;35.00;30.00;;;;;;;;5095747;27;45291;-49
2021/12/23 14:56:19;;;;;;;;;35.75;33.75;;;;;;;;5096713;27;45140;-49
2021/12/23 14:59:00;;;;;;;;;28.25;26.50;;;;;;;;5095603;27;45297;-47
2021/12/23 15:01:25;;;;;;;;;35.25;34.50;;;;;;;;5094949;27;45273;-49
2021/12/23 15:04:01;;;;;;;;;30.25;29.75;;;;;;;;5096343;27;45286;-46
2021/12/23 15:06:26;;;;;;;;;32.00;28.25;;;;;;;;5097348;27;45371;-49
2021/12/23 15:08:51;;;;;;;;;32.75;29.00;;;;;;;;5097098;27;45418;-48
2021/12/23 15:11:25;;;;;;;;;37.00;32.75;;;;;;;;5096764;27;45472;-52
2021/12/23 15:13:50;;;;;;;;;39.25;34.50;;;;;;;;5096857;27;46089;-49
2021/12/23 15:16:26;;;;;;;;;20.00;20.00;;;;;;;;5096084;27;45342;-49
2021/12/23 15:19:34;;;;;;;;;33.75;27.75;;;;;;;;5097098;27;45349;-48
2021/12/23 15:21:48;;;;;;;;;34.00;27.50;;;;;;;;5096228;27;45850;-50
2021/12/23 15:24:34;;;;;;;;;38.00;35.00;;;;;;;;5096783;27;45337;-48
2021/12/23 15:27:00;;;;;;;;;31.25;30.25;;;;;;;;5096234;27;45374;-48
2021/12/23 15:29:28;;;;;;;;;34.40;32.80;;;;;;;;5097247;27;45607;-49